Time;durP1;ratioP1;P1;durP2;ratioP2;P2;SDS_P1;SDS_P2;PMS_P1;PMS_P2;Temp;Humidity;BMP_temperature;BMP_pressure;BME280_temperature;BME280_humidity;BME280_pressure;Samples;Min_cycle;Max_cycle;Signal;HPM_P1;HPM_P2
2022/03/09 00:01:36;;;;;;;28.43;19.10;;;;;;;2.66;97.55;99640.09;5074600;28;20465;-81
2022/03/09 00:04:03;;;;;;;29.70;20.03;;;;;;;2.48;97.30;99640.00;5074335;28;20547;-81
2022/03/09 00:06:30;;;;;;;33.43;22.77;;;;;;;2.31;98.16;99635.50;5073804;28;20450;-80
2022/03/09 00:08:57;;;;;;;29.37;21.00;;;;;;;2.19;99.10;99633.97;5074177;28;20959;-80
2022/03/09 00:11:24;;;;;;;34.13;21.20;;;;;;;2.14;99.69;99644.06;5074364;28;20445;-82
2022/03/09 00:13:50;;;;;;;31.27;21.80;;;;;;;2.08;100.00;99639.38;5074318;28;20504;-83
2022/03/09 00:16:17;;;;;;;34.53;23.53;;;;;;;1.96;100.00;99632.59;5074094;28;20464;-83
2022/03/09 00:18:45;;;;;;;31.53;22.50;;;;;;;1.87;100.00;99630.03;5074007;28;20953;-83
2022/03/09 00:21:12;;;;;;;33.20;22.07;;;;;;;1.85;100.00;99631.94;5074057;28;20437;-83
2022/03/09 00:23:38;;;;;;;36.77;22.93;;;;;;;1.86;100.00;99629.19;5074147;28;20559;-82
2022/03/09 00:26:05;;;;;;;33.70;22.60;;;;;;;1.73;100.00;99638.25;5073869;28;20937;-82
2022/03/09 00:28:32;;;;;;;36.27;22.90;;;;;;;1.62;100.00;99631.38;5074183;28;20434;-80
2022/03/09 00:30:59;;;;;;;34.43;24.07;;;;;;;1.64;100.00;99632.06;5073758;28;20434;-80
2022/03/09 00:33:25;;;;;;;32.97;23.30;;;;;;;1.70;100.00;99626.28;5073715;28;20438;-80
2022/03/09 00:35:53;;;;;;;33.47;23.17;;;;;;;1.71;100.00;99632.34;5074271;28;20507;-80
2022/03/09 00:38:20;;;;;;;35.70;23.30;;;;;;;1.62;100.00;99630.53;5073865;28;20825;-79
2022/03/09 00:40:48;;;;;;;37.00;24.23;;;;;;;1.60;100.00;99622.84;5073846;28;20430;-79
2022/03/09 00:43:15;;;;;;;35.50;22.73;;;;;;;1.74;100.00;99617.19;5073679;28;20556;-79
2022/03/09 00:45:41;;;;;;;35.53;22.87;;;;;;;1.62;100.00;99620.91;5088111;28;20959;-79
2022/03/09 00:48:08;;;;;;;35.67;23.83;;;;;;;1.64;100.00;99616.38;5093374;28;20941;-79
2022/03/09 00:50:35;;;;;;;34.40;22.53;;;;;;;1.59;100.00;99610.69;5093849;28;20585;-79
2022/03/09 00:53:03;;;;;;;34.77;24.30;;;;;;;1.68;100.00;99612.50;5093815;28;20438;-79
2022/03/09 00:55:30;;;;;;;35.70;24.50;;;;;;;1.78;100.00;99605.47;5094460;28;20425;-79
2022/03/09 00:57:57;;;;;;;40.13;25.47;;;;;;;1.91;100.00;99615.69;5093596;28;20437;-79
2022/03/09 01:00:23;;;;;;;42.17;25.60;;;;;;;1.96;100.00;99603.81;5092482;28;20446;-76
2022/03/09 01:02:50;;;;;;;37.37;24.50;;;;;;;2.11;100.00;99591.94;5092392;28;20498;-79
2022/03/09 01:05:17;;;;;;;36.20;23.70;;;;;;;2.15;100.00;99592.47;5093064;28;20473;-76
2022/03/09 01:07:44;;;;;;;36.03;24.27;;;;;;;2.29;100.00;99592.06;5092267;28;20425;-78
2022/03/09 01:10:13;;;;;;;34.93;24.90;;;;;;;2.25;99.92;99588.88;5093732;28;20441;-79
2022/03/09 01:12:40;;;;;;;35.20;24.07;;;;;;;2.30;98.78;99589.28;5093734;28;20466;-79
2022/03/09 01:15:07;;;;;;;39.07;25.30;;;;;;;2.18;97.98;99590.41;5092633;28;20869;-78
2022/03/09 01:17:34;;;;;;;41.10;26.73;;;;;;;2.18;98.11;99590.41;5092795;28;20487;-78
2022/03/09 01:20:01;;;;;;;40.53;26.30;;;;;;;1.88;98.21;99587.94;5092699;28;20494;-81
2022/03/09 01:22:28;;;;;;;37.40;25.07;;;;;;;1.80;99.13;99579.16;5092943;28;20880;-80
2022/03/09 01:24:55;;;;;;;36.53;23.33;;;;;;;1.82;98.91;99580.66;5092881;28;20641;-78
2022/03/09 01:27:23;;;;;;;36.97;24.27;;;;;;;1.90;99.89;99582.59;5092642;28;20498;-80
2022/03/09 01:29:49;;;;;;;36.83;25.23;;;;;;;2.03;98.93;99576.09;5083541;28;20441;-78
2022/03/09 01:32:16;;;;;;;41.17;26.43;;;;;;;2.11;98.10;99581.47;5071441;28;20438;-79
2022/03/09 01:34:43;;;;;;;38.43;25.20;;;;;;;2.10;98.83;99577.19;5070861;28;20504;-78
2022/03/09 01:37:09;;;;;;;41.97;25.90;;;;;;;2.01;98.07;99580.66;5070688;28;20446;-76
2022/03/09 01:39:36;;;;;;;43.10;26.83;;;;;;;1.89;98.20;99581.78;5070323;28;20437;-77
2022/03/09 01:42:04;;;;;;;40.60;26.10;;;;;;;1.89;98.31;99579.16;5070560;28;20496;-76
2022/03/09 01:44:32;;;;;;;44.40;27.27;;;;;;;1.92;98.54;99572.81;5070476;28;20481;-78
2022/03/09 01:46:58;;;;;;;43.03;25.63;;;;;;;1.85;97.58;99580.41;5070284;28;20865;-79
2022/03/09 01:49:26;;;;;;;39.60;26.23;;;;;;;2.03;98.78;99570.03;5070411;28;20439;-78
2022/03/09 01:51:57;;;;;;;42.13;27.50;;;;;;;2.18;97.34;99573.84;5070449;28;20442;-79
2022/03/09 01:54:25;;;;;;;39.77;24.90;;;;;;;2.25;96.76;99567.91;5070493;28;20426;-80
2022/03/09 01:56:52;;;;;;;39.87;26.80;;;;;;;2.28;96.21;99583.34;5070076;28;20857;-80
2022/03/09 01:59:18;;;;;;;43.47;26.40;;;;;;;2.04;96.13;99582.97;5070318;28;20519;-79
2022/03/09 02:01:47;;;;;;;37.90;24.47;;;;;;;1.98;96.20;99586.16;5070046;28;20438;-78
2022/03/09 02:04:14;;;;;;;40.40;26.30;;;;;;;2.01;96.35;99570.19;5069994;28;20539;-77
2022/03/09 02:06:41;;;;;;;43.67;26.40;;;;;;;2.14;96.56;99582.97;5070107;28;20511;-79
2022/03/09 02:11:55;;;;;;;39.90;24.67;;;;;;;2.38;95.60;99589.41;5070412;28;20921;-78
2022/03/09 02:14:29;;;;;;;37.13;25.10;;;;;;;2.40;95.25;99587.47;5070256;28;20450;-79
2022/03/09 02:16:58;;;;;;;38.53;26.17;;;;;;;2.46;94.65;99584.28;5070285;28;20438;-79
2022/03/09 02:19:25;;;;;;;38.50;26.17;;;;;;;2.57;94.51;99586.72;5070070;28;20937;-78
2022/03/09 02:21:56;;;;;;;39.50;25.10;;;;;;;2.64;94.19;99594.81;5070344;28;20434;-79
2022/03/09 02:24:26;;;;;;;37.90;24.87;;;;;;;2.58;94.34;99596.22;5070483;28;20507;-79
2022/03/09 02:26:52;;;;;;;38.57;25.50;;;;;;;2.51;93.39;99594.31;5070231;28;20488;-78
2022/03/09 02:29:19;;;;;;;35.93;24.57;;;;;;;2.60;94.38;99601.31;5070160;28;20488;-79
2022/03/09 02:31:46;;;;;;;37.80;24.63;;;;;;;2.59;94.00;99597.06;5070486;28;20445;-77
2022/03/09 02:34:12;;;;;;;41.00;25.77;;;;;;;2.68;94.03;99594.41;5070191;28;20446;-78
2022/03/09 02:36:39;;;;;;;40.33;26.83;;;;;;;2.72;93.06;99601.03;5070388;28;20446;-78
2022/03/09 02:39:06;;;;;;;41.50;26.63;;;;;;;2.73;93.88;99594.78;5069835;28;20949;-78
2022/03/09 02:41:34;;;;;;;43.77;26.63;;;;;;;2.81;92.74;99594.91;5070273;28;20450;-76
2022/03/09 02:44:01;;;;;;;45.97;28.47;;;;;;;2.75;92.30;99590.25;5070161;28;20482;-79
2022/03/09 02:46:28;;;;;;;46.20;29.83;;;;;;;2.81;91.73;99594.91;5070120;28;20456;-77
2022/03/09 02:48:55;;;;;;;42.37;26.63;;;;;;;2.74;91.16;99596.44;5070156;28;20523;-77
2022/03/09 02:51:22;;;;;;;46.97;28.20;;;;;;;2.79;93.28;99593.41;5069882;28;20472;-80
2022/03/09 02:53:49;;;;;;;40.70;26.83;;;;;;;2.78;92.18;99594.38;5069992;28;20442;-79
2022/03/09 02:56:16;;;;;;;41.80;28.27;;;;;;;2.84;91.96;99596.41;5070520;28;20442;-77
2022/03/09 02:58:45;;;;;;;41.43;27.30;;;;;;;2.76;91.75;99589.28;5069954;28;20446;-79
2022/03/09 03:01:13;;;;;;;40.50;26.90;;;;;;;2.63;91.51;99588.78;5070500;28;20437;-79
2022/03/09 03:03:40;;;;;;;43.33;27.60;;;;;;;2.53;92.46;99593.22;5069915;28;20511;-79
2022/03/09 03:06:07;;;;;;;43.80;27.53;;;;;;;2.46;92.77;99594.78;5070184;28;20491;-79
2022/03/09 03:08:34;;;;;;;44.43;28.20;;;;;;;2.40;92.40;99597.94;5070271;28;20525;-77
2022/03/09 03:11:01;;;;;;;44.10;29.10;;;;;;;2.38;93.07;99594.66;5070139;28;20528;-79
2022/03/09 03:13:28;;;;;;;45.07;26.73;;;;;;;2.24;93.77;99589.03;5070188;28;20438;-79
2022/03/09 03:15:56;;;;;;;43.87;28.43;;;;;;;2.32;94.21;99597.81;5070783;28;20442;-80
2022/03/09 03:18:22;;;;;;;40.97;26.87;;;;;;;2.43;94.59;99597.66;5069874;28;20442;-78
2022/03/09 03:20:54;;;;;;;40.50;26.63;;;;;;;2.51;93.98;99589.91;5069794;28;20857;-78
2022/03/09 03:23:21;;;;;;;44.67;28.77;;;;;;;2.61;93.81;99595.13;5070307;28;20953;-80
2022/03/09 03:25:47;;;;;;;41.50;27.13;;;;;;;2.57;93.23;99588.53;5070341;28;20473;-80
2022/03/09 03:28:14;;;;;;;42.00;27.03;;;;;;;2.58;93.52;99598.03;5069562;28;20499;-78
2022/03/09 03:30:41;;;;;;;39.93;28.13;;;;;;;2.65;93.54;99597.31;5069390;28;20476;-80
2022/03/09 03:33:09;;;;;;;44.73;27.30;;;;;;;2.75;93.64;99592.88;5069775;28;20527;-80
2022/03/09 03:35:36;;;;;;;42.87;27.23;;;;;;;2.76;92.19;99591.91;5070451;28;20438;-79
2022/03/09 03:38:02;;;;;;;47.27;29.20;;;;;;;2.83;91.90;99600.00;5070718;28;20786;-81
2022/03/09 03:40:29;;;;;;;41.57;28.20;;;;;;;2.90;91.81;99599.28;5070452;28;20468;-78
2022/03/09 03:42:56;;;;;;;44.03;27.77;;;;;;;2.91;91.41;99597.50;5073753;28;20434;-79
2022/03/09 03:45:23;;;;;;;45.23;28.20;;;;;;;2.93;92.27;99604.25;5073776;28;20470;-78
2022/03/09 03:47:49;;;;;;;42.53;26.97;;;;;;;2.83;90.90;99600.00;5074250;28;20884;-79
2022/03/09 03:50:17;;;;;;;41.87;27.97;;;;;;;2.87;90.68;99607.44;5074468;28;20476;-78
2022/03/09 03:52:44;;;;;;;47.27;27.43;;;;;;;2.83;90.44;99595.59;5074314;28;20863;-78
2022/03/09 03:55:11;;;;;;;42.73;28.87;;;;;;;2.65;90.65;99593.88;5075559;28;20500;-78
2022/03/09 03:57:38;;;;;;;37.97;26.93;;;;;;;2.59;91.19;99597.06;5074262;28;20450;-79
2022/03/09 04:00:07;;;;;;;44.10;28.10;;;;;;;2.45;91.11;99585.22;5074776;28;20442;-79
2022/03/09 04:02:33;;;;;;;40.47;26.60;;;;;;;2.38;91.18;99584.16;5073895;28;21003;-78
2022/03/09 04:05:00;;;;;;;41.30;26.80;;;;;;;2.32;91.60;99589.97;5074321;28;20531;-77
2022/03/09 04:07:28;;;;;;;43.23;27.87;;;;;;;2.23;92.77;99582.13;5074458;28;20450;-78
2022/03/09 04:09:55;;;;;;;45.00;28.60;;;;;;;2.06;93.68;99594.16;5073878;28;20913;-78
2022/03/09 04:12:23;;;;;;;46.13;28.70;;;;;;;2.09;94.17;99582.56;5073755;28;21011;-79
2022/03/09 04:14:50;;;;;;;42.27;28.00;;;;;;;1.96;93.94;99589.91;5073949;28;20449;-80
2022/03/09 04:17:17;;;;;;;45.23;29.43;;;;;;;1.92;94.56;99591.94;5074109;28;20442;-80
2022/03/09 04:19:43;;;;;;;48.57;29.27;;;;;;;1.94;94.12;99595.28;5074099;28;20446;-81
2022/03/09 04:22:10;;;;;;;49.47;28.93;;;;;;;2.02;95.17;99586.72;5073609;28;20473;-79
2022/03/09 04:24:39;;;;;;;42.90;28.47;;;;;;;2.20;95.43;99585.03;5073693;28;20931;-80
2022/03/09 04:27:06;;;;;;;50.23;31.17;;;;;;;2.25;94.18;99591.47;5073914;28;20499;-80
2022/03/09 04:29:33;;;;;;;44.27;29.73;;;;;;;2.29;93.78;99584.19;5073478;28;20446;-78
2022/03/09 04:31:59;;;;;;;46.70;29.50;;;;;;;2.41;93.31;99594.34;5073790;28;20433;-77
2022/03/09 04:34:26;;;;;;;50.77;29.47;;;;;;;2.36;92.13;99591.34;5073494;28;21030;-77
2022/03/09 04:36:53;;;;;;;48.80;29.97;;;;;;;2.15;91.82;99595.09;5073591;28;20942;-78
2022/03/09 04:39:19;;;;;;;55.20;31.80;;;;;;;2.12;92.48;99596.19;5073975;28;20507;-78
2022/03/09 04:41:47;;;;;;;49.00;30.10;;;;;;;2.25;93.89;99593.31;5073382;28;20438;-78
2022/03/09 04:44:14;;;;;;;53.00;32.10;;;;;;;2.32;93.66;99600.44;5073620;28;20491;-78
2022/03/09 04:46:41;;;;;;;49.00;29.90;;;;;;;2.45;93.93;99589.66;5073559;28;20438;-77
2022/03/09 04:49:07;;;;;;;51.83;32.47;;;;;;;2.46;92.40;99597.38;5073362;28;20442;-78
2022/03/09 04:51:36;;;;;;;54.37;32.30;;;;;;;2.44;92.46;99596.69;5073105;28;20438;-82
2022/03/09 04:54:03;;;;;;;50.80;32.07;;;;;;;2.28;92.44;99600.88;5072887;28;20465;-83
2022/03/09 04:56:30;;;;;;;46.30;28.63;;;;;;;2.30;92.74;99602.41;5073012;28;20495;-81
2022/03/09 04:58:58;;;;;;;45.87;30.27;;;;;;;2.36;92.45;99601.81;5073817;28;20442;-82
2022/03/09 05:01:24;;;;;;;43.20;28.47;;;;;;;2.26;92.61;99600.19;5073140;28;20438;-81
2022/03/09 05:03:51;;;;;;;51.40;30.00;;;;;;;2.36;92.83;99609.69;5073346;28;20477;-85
2022/03/09 05:06:18;;;;;;;51.27;29.60;;;;;;;2.44;93.13;99608.97;5073003;28;20477;-78
2022/03/09 05:08:45;;;;;;;44.43;29.37;;;;;;;2.43;92.22;99608.16;5072710;28;20960;-77
2022/03/09 05:11:11;;;;;;;43.93;28.63;;;;;;;2.45;92.65;99613.25;5072974;28;20446;-77
2022/03/09 05:13:38;;;;;;;43.13;29.30;;;;;;;2.55;92.53;99616.66;5072899;28;20434;-78
2022/03/09 05:16:07;;;;;;;52.20;32.97;;;;;;;2.41;92.24;99615.31;5072524;28;20446;-76
2022/03/09 05:18:37;;;;;;;54.10;36.50;;;;;;;2.26;91.86;99613.28;5072594;28;20495;-75
2022/03/09 05:21:04;;;;;;;54.47;35.57;;;;;;;2.22;92.60;99612.75;5072744;28;20438;-75
2022/03/09 05:23:31;;;;;;;58.27;38.03;;;;;;;2.25;93.30;99624.75;5072532;28;20502;-73
2022/03/09 05:25:57;;;;;;;59.40;36.20;;;;;;;2.13;93.76;99631.94;5072542;28;20473;-73
2022/03/09 05:28:24;;;;;;;52.83;35.30;;;;;;;2.07;94.64;99634.25;5072370;28;20446;-75
2022/03/09 05:30:51;;;;;;;49.17;32.37;;;;;;;2.05;93.63;99637.03;5072474;28;20442;-77
2022/03/09 05:33:19;;;;;;;51.10;31.73;;;;;;;1.79;94.23;99637.72;5072401;28;20438;-75
2022/03/09 05:35:45;;;;;;;53.00;32.23;;;;;;;1.75;95.03;99642.41;5077294;28;20815;-76
2022/03/09 05:38:12;;;;;;;54.83;32.70;;;;;;;1.78;94.41;99651.75;5075229;28;20496;-77
2022/03/09 05:40:39;;;;;;;56.57;33.87;;;;;;;1.87;94.75;99646.53;5072291;28;20460;-75
2022/03/09 05:43:05;;;;;;;54.10;33.93;;;;;;;1.90;94.97;99654.13;5072580;28;20430;-76
2022/03/09 05:45:32;;;;;;;63.80;38.60;;;;;;;1.90;95.63;99654.13;5073230;28;20474;-77
2022/03/09 05:47:59;;;;;;;69.63;41.13;;;;;;;1.91;94.49;99661.00;5079572;28;20445;-75
2022/03/09 05:50:27;;;;;;;79.40;45.07;;;;;;;1.90;95.26;99655.91;5092893;28;20437;-74
2022/03/09 05:52:54;;;;;;;90.63;52.70;;;;;;;1.90;94.89;99661.16;5092528;28;20445;-74
2022/03/09 05:55:21;;;;;;;61.83;39.23;;;;;;;1.89;95.22;99670.81;5091900;28;20981;-76
2022/03/09 05:57:48;;;;;;;58.00;38.63;;;;;;;1.93;95.50;99672.19;5091068;28;20531;-73
2022/03/09 06:00:15;;;;;;;54.53;32.83;;;;;;;1.77;95.37;99650.13;5085331;28;20922;-75
2022/03/09 06:02:42;;;;;;;66.73;39.47;;;;;;;1.98;95.57;99685.69;5090228;28;20456;-72
2022/03/09 06:05:10;;;;;;;57.67;34.10;;;;;;;1.90;95.74;99687.34;5091145;28;21026;-72
2022/03/09 06:07:38;;;;;;;52.03;30.87;;;;;;;1.85;95.24;99679.91;5086333;28;20469;-79
2022/03/09 06:10:06;;;;;;;57.87;34.40;;;;;;;1.74;95.78;99693.13;5092092;28;20441;-74
2022/03/09 06:12:33;;;;;;;55.53;32.13;;;;;;;1.69;97.28;99690.06;5082456;28;20553;-72
2022/03/09 06:15:00;;;;;;;58.17;34.77;;;;;;;1.61;96.71;99692.53;5071844;28;20446;-78
2022/03/09 06:17:27;;;;;;;52.27;30.43;;;;;;;1.60;97.21;99690.91;5072349;28;20494;-72
2022/03/09 06:19:53;;;;;;;49.77;30.83;;;;;;;1.53;97.61;99695.00;5071550;28;20866;-72
2022/03/09 06:22:20;;;;;;;50.73;30.67;;;;;;;1.43;97.75;99699.38;5071800;28;20438;-71
2022/03/09 06:24:48;;;;;;;53.80;34.27;;;;;;;1.36;97.95;99686.97;5069628;28;20449;-75
2022/03/09 06:27:17;;;;;;;52.47;33.07;;;;;;;1.23;98.78;99676.75;5068773;28;20419;-72
2022/03/09 06:29:43;;;;;;;52.53;32.67;;;;;;;1.22;99.98;99695.19;5071077;28;20442;-72
2022/03/09 06:32:10;;;;;;;61.53;34.53;;;;;;;1.20;99.99;99697.94;5072167;28;21006;-72
2022/03/09 06:34:37;;;;;;;62.83;34.50;;;;;;;1.20;100.00;99687.47;5076535;28;20450;-73
2022/03/09 06:37:04;;;;;;;63.73;35.87;;;;;;;1.18;100.00;99699.84;5073632;28;20465;-75
2022/03/09 06:39:31;;;;;;;60.87;37.20;;;;;;;0.88;100.00;99650.19;5070273;28;20491;-74
2022/03/09 06:41:59;;;;;;;51.17;31.47;;;;;;;1.05;100.00;99696.63;5086543;28;20514;-72
2022/03/09 06:44:26;;;;;;;57.07;33.57;;;;;;;1.10;100.00;99693.63;5089539;28;20914;-71
2022/03/09 06:46:52;;;;;;;60.53;33.90;;;;;;;1.12;100.00;99699.53;5079216;28;20481;-73
2022/03/09 06:49:19;;;;;;;53.60;31.57;;;;;;;1.07;100.00;99699.94;5083251;28;20503;-72
2022/03/09 06:51:46;;;;;;;55.37;32.83;;;;;;;1.13;100.00;99706.41;5069396;28;20446;-74
2022/03/09 06:54:12;;;;;;;56.97;34.00;;;;;;;1.17;100.00;99703.41;5069716;28;20790;-75
2022/03/09 06:56:39;;;;;;;61.13;36.57;;;;;;;1.12;100.00;99703.00;5069626;28;20454;-71
2022/03/09 06:59:07;;;;;;;68.60;38.30;;;;;;;1.17;100.00;99708.66;5069912;28;20503;-72
2022/03/09 07:01:34;;;;;;;63.10;36.00;;;;;;;1.12;100.00;99703.00;5069822;28;20461;-71
2022/03/09 07:04:01;;;;;;;58.33;33.30;;;;;;;1.17;100.00;99707.81;5069386;28;20496;-73
2022/03/09 07:06:28;;;;;;;57.53;34.50;;;;;;;1.20;100.00;99707.56;5069804;28;20476;-73
2022/03/09 07:08:55;;;;;;;54.60;32.03;;;;;;;1.30;100.00;99709.25;5069499;28;20515;-72
2022/03/09 07:11:21;;;;;;;62.10;35.93;;;;;;;1.30;100.00;99719.72;5069902;28;20437;-70
2022/03/09 07:13:48;;;;;;;62.03;36.73;;;;;;;1.36;100.00;99713.97;5070115;28;20461;-73
2022/03/09 07:16:16;;;;;;;70.63;39.70;;;;;;;1.32;100.00;99707.34;5072189;28;20430;-72
2022/03/09 07:18:43;;;;;;;65.73;37.83;;;;;;;1.50;100.00;99712.75;5073534;28;20954;-74
2022/03/09 07:21:10;;;;;;;62.67;36.93;;;;;;;1.47;100.00;99715.66;5081222;28;20452;-71
2022/03/09 07:23:36;;;;;;;53.17;32.90;;;;;;;1.48;100.00;99707.66;5113011;28;20432;-73
2022/03/09 07:26:03;;;;;;;57.43;33.30;;;;;;;1.53;100.00;99705.47;5114351;28;20533;-72
2022/03/09 07:28:30;;;;;;;59.30;35.87;;;;;;;1.67;100.00;99712.13;5115118;28;20440;-72
2022/03/09 07:30:57;;;;;;;67.40;38.97;;;;;;;1.78;100.00;99719.84;5091719;28;20844;-74
2022/03/09 07:33:25;;;;;;;56.53;34.07;;;;;;;1.67;99.02;99717.34;5072605;28;20442;-77
2022/03/09 07:35:52;;;;;;;55.57;33.57;;;;;;;1.65;98.23;99720.09;5083874;28;20868;-74
2022/03/09 07:38:19;;;;;;;54.90;32.57;;;;;;;1.63;97.43;99718.59;5094984;28;20449;-72
2022/03/09 07:40:46;;;;;;;60.10;34.83;;;;;;;1.60;97.32;99701.38;5085944;28;20445;-72
2022/03/09 07:43:13;;;;;;;69.23;39.00;;;;;;;2.00;98.73;99712.56;5074192;28;20941;-74
2022/03/09 07:45:40;;;;;;;55.30;34.87;;;;;;;2.12;97.43;99703.63;5072235;28;20473;-72
2022/03/09 07:48:07;;;;;;;51.73;31.33;;;;;;;2.05;95.91;99713.00;5072332;28;20961;-74
2022/03/09 07:50:36;;;;;;;56.53;34.67;;;;;;;2.08;94.80;99702.22;5072746;28;20432;-72
2022/03/09 07:53:04;;;;;;;61.03;33.70;;;;;;;2.29;94.53;99700.28;5072928;28;20437;-79
2022/03/09 07:55:30;;;;;;;58.53;33.60;;;;;;;2.47;94.84;99698.66;5072247;28;20499;-77
2022/03/09 07:57:57;;;;;;;40.50;27.83;;;;;;;2.39;92.62;99703.75;5073668;28;20461;-77
2022/03/09 08:00:24;;;;;;;37.53;25.03;;;;;;;2.46;90.65;99704.88;5074712;28;20462;-73
2022/03/09 08:02:51;;;;;;;45.13;28.40;;;;;;;2.58;89.50;99711.56;5085608;28;20453;-71
2022/03/09 08:05:18;;;;;;;42.80;27.13;;;;;;;2.68;89.34;99717.66;5091352;28;20468;-73
2022/03/09 08:07:46;;;;;;;39.00;25.53;;;;;;;2.67;88.47;99705.50;5087834;28;20502;-72
2022/03/09 08:10:13;;;;;;;43.37;27.03;;;;;;;2.70;87.93;99710.44;5094646;28;20461;-73
2022/03/09 08:12:40;;;;;;;43.17;29.20;;;;;;;2.72;88.17;99713.78;5094720;28;20449;-71
2022/03/09 08:15:07;;;;;;;46.07;27.90;;;;;;;2.75;89.07;99713.50;5094584;28;20433;-75
2022/03/09 08:17:34;;;;;;;43.93;26.27;;;;;;;2.95;88.32;99709.03;5090589;28;20457;-71
2022/03/09 08:20:02;;;;;;;43.40;27.33;;;;;;;3.05;87.63;99710.66;5089136;28;20510;-69
2022/03/09 08:22:29;;;;;;;41.80;26.23;;;;;;;2.90;88.33;99706.81;5093626;28;20465;-69
2022/03/09 08:24:57;;;;;;;39.30;25.87;;;;;;;2.98;88.05;99708.75;5094193;28;21056;-70
2022/03/09 08:27:24;;;;;;;47.13;28.90;;;;;;;3.03;88.84;99701.28;5089970;28;20485;-68
2022/03/09 08:29:51;;;;;;;46.50;29.80;;;;;;;3.45;89.54;99705.94;5092094;28;20898;-70
2022/03/09 08:32:19;;;;;;;49.37;28.47;;;;;;;3.63;90.17;99704.16;5093577;28;20520;-69
2022/03/09 08:34:45;;;;;;;46.40;29.90;;;;;;;3.90;89.68;99705.94;5093921;28;20449;-70
2022/03/09 08:37:12;;;;;;;42.07;28.57;;;;;;;3.99;86.98;99708.50;5094079;28;20267;-69
2022/03/09 08:39:39;;;;;;;44.67;29.27;;;;;;;4.22;88.32;99704.47;5093895;28;20490;-70
2022/03/09 08:42:10;;;;;;;47.97;30.77;;;;;;;4.55;87.78;99711.66;5073664;28;20195;-70
2022/03/09 08:44:37;;;;;;;49.30;29.67;;;;;;;4.76;86.75;99713.91;5086795;28;20183;-70
2022/03/09 08:47:04;;;;;;;46.10;29.50;;;;;;;5.17;85.66;99708.75;5093708;28;20518;-72
2022/03/09 08:49:33;;;;;;;47.67;30.80;;;;;;;5.30;81.47;99714.41;5094580;28;20191;-71
2022/03/09 08:52:01;;;;;;;41.63;26.10;;;;;;;5.41;80.83;99708.88;5093893;28;20195;-70
2022/03/09 08:54:27;;;;;;;40.37;28.00;;;;;;;5.66;80.02;99705.34;5093840;28;20196;-71
2022/03/09 08:56:54;;;;;;;38.27;25.60;;;;;;;6.02;76.10;99715.69;5093668;28;20203;-72
2022/03/09 08:59:23;;;;;;;39.63;26.73;;;;;;;5.86;74.86;99705.94;5093548;28;20260;-71
2022/03/09 09:01:50;;;;;;;38.67;26.07;;;;;;;5.97;75.36;99710.06;5093240;28;20583;-69
2022/03/09 09:04:17;;;;;;;33.37;23.73;;;;;;;5.91;74.60;99708.09;5092738;28;20226;-69
2022/03/09 09:06:44;;;;;;;33.83;23.67;;;;;;;6.20;75.48;99697.94;5093420;28;20280;-70
2022/03/09 09:09:10;;;;;;;39.97;26.37;;;;;;;6.35;74.96;99688.38;5093620;28;20278;-69
2022/03/09 09:11:38;;;;;;;44.93;30.50;;;;;;;6.75;75.45;99696.28;5087007;28;20259;-65
2022/03/09 09:14:05;;;;;;;42.87;29.20;;;;;;;6.61;73.16;99715.44;5072255;28;20728;-64
2022/03/09 09:16:33;;;;;;;34.70;23.63;;;;;;;6.47;72.60;99701.06;5076175;28;20571;-65
2022/03/09 09:19:00;;;;;;;62.07;38.00;;;;;;;6.80;74.29;99699.22;5085140;28;20199;-64
2022/03/09 09:21:27;;;;;;;42.63;29.50;;;;;;;6.89;72.70;99704.34;5082848;28;20207;-66
2022/03/09 09:23:53;;;;;;;38.07;27.43;;;;;;;6.76;73.87;99700.56;5072656;28;20663;-66
2022/03/09 09:26:20;;;;;;;33.87;24.37;;;;;;;7.15;70.80;99701.47;5072517;28;20223;-66
2022/03/09 09:28:47;;;;;;;36.40;25.67;;;;;;;6.96;71.19;99704.50;5103411;28;20187;-65
2022/03/09 09:31:14;;;;;;;33.80;23.77;;;;;;;6.31;71.47;99700.22;5113470;28;20243;-68
2022/03/09 09:33:42;;;;;;;38.20;25.30;;;;;;;6.59;71.48;99705.03;5082294;28;20203;-69
2022/03/09 09:36:09;;;;;;;31.77;22.63;;;;;;;6.44;72.00;99703.19;5092855;28;20202;-68
2022/03/09 09:38:35;;;;;;;35.90;25.33;;;;;;;6.96;75.05;99693.94;5077337;28;20203;-69
2022/03/09 09:41:02;;;;;;;35.23;25.80;;;;;;;7.05;70.09;99706.13;5082701;28;20195;-67
2022/03/09 09:43:29;;;;;;;39.90;25.93;;;;;;;6.69;69.16;99704.88;5092974;28;20606;-67
2022/03/09 09:45:57;;;;;;;35.13;25.00;;;;;;;6.52;68.88;99664.47;5108950;28;20235;-66
2022/03/09 09:48:24;;;;;;;35.60;24.73;;;;;;;6.66;70.79;99706.00;5076476;28;20205;-65
2022/03/09 09:50:54;;;;;;;29.50;23.10;;;;;;;6.40;70.43;99697.44;5072575;28;20188;-65
2022/03/09 09:53:24;;;;;;;32.60;24.00;;;;;;;6.30;70.79;99695.94;5072894;28;20246;-66
2022/03/09 09:55:51;;;;;;;35.77;25.87;;;;;;;6.13;71.66;99691.66;5073054;28;20270;-65
2022/03/09 09:58:20;;;;;;;38.10;26.90;;;;;;;5.93;72.72;99690.28;5072559;28;20254;-66
2022/03/09 10:00:47;;;;;;;36.53;25.37;;;;;;;6.05;73.45;99679.28;5072309;28;20203;-66
2022/03/09 10:03:14;;;;;;;36.37;25.00;;;;;;;6.17;72.09;99685.91;5072206;28;20622;-66
2022/03/09 10:05:41;;;;;;;35.67;24.30;;;;;;;6.32;71.15;99683.44;5072706;28;20633;-66
2022/03/09 10:08:14;;;;;;;38.53;26.43;;;;;;;6.34;70.75;99668.25;5072313;28;20200;-66
2022/03/09 10:10:44;;;;;;;35.87;25.57;;;;;;;6.30;69.87;99690.69;5081435;28;20658;-66
2022/03/09 10:13:14;;;;;;;48.47;30.13;;;;;;;6.16;70.76;99686.88;5103712;28;20260;-67
2022/03/09 10:15:42;;;;;;;46.37;29.50;;;;;;;6.10;71.40;99676.16;5112560;28;20191;-67
2022/03/09 10:18:16;;;;;;;38.33;25.77;;;;;;;6.32;70.97;99680.81;5090093;28;20667;-66
2022/03/09 10:20:43;;;;;;;38.13;27.67;;;;;;;6.30;71.09;99664.28;5071703;28;20661;-65
2022/03/09 10:23:12;;;;;;;34.20;24.77;;;;;;;6.43;69.70;99680.44;5071823;28;20191;-66
2022/03/09 10:25:40;;;;;;;40.40;28.80;;;;;;;6.29;69.56;99683.75;5071895;28;20241;-66
2022/03/09 10:28:08;;;;;;;38.77;25.43;;;;;;;6.46;70.37;99672.22;5072730;28;20227;-67
2022/03/09 10:30:37;;;;;;;32.70;22.93;;;;;;;6.43;69.21;99672.53;5071673;28;20231;-66
2022/03/09 10:33:05;;;;;;;32.87;24.20;;;;;;;6.40;67.87;99668.41;5070759;28;20231;-65
2022/03/09 10:35:44;;;;;;;41.97;28.50;;;;;;;6.50;68.97;99662.97;5082399;28;20195;-66
2022/03/09 10:38:25;;;;;;;33.33;24.20;;;;;;;6.76;69.36;99663.59;5091714;28;20247;-68
2022/03/09 10:40:52;;;;;;;27.60;20.90;;;;;;;7.01;69.82;99657.25;5091810;28;20190;-68
2022/03/09 10:43:22;;;;;;;27.43;20.53;;;;;;;6.95;67.99;99658.78;5091779;28;20247;-66
2022/03/09 10:46:13;;;;;;;27.23;20.17;;;;;;;7.05;69.93;99653.28;5091945;28;20256;-67
2022/03/09 10:48:54;;;;;;;32.17;21.90;;;;;;;7.19;69.84;99642.84;5067742;28;20689;-68
2022/03/09 10:51:32;;;;;;;31.60;21.80;;;;;;;7.08;69.25;99653.81;5093667;28;20239;-67
2022/03/09 10:54:03;;;;;;;23.53;19.37;;;;;;;6.94;67.49;99658.97;5075463;28;20729;-67
2022/03/09 10:56:30;;;;;;;22.60;19.13;;;;;;;7.08;67.77;99648.53;5091079;28;20189;-66
2022/03/09 10:58:57;;;;;;;25.93;20.17;;;;;;;7.26;68.17;99645.66;5095775;28;20678;-65
2022/03/09 11:01:25;;;;;;;23.03;18.03;;;;;;;7.10;65.29;99649.16;5095687;28;20735;-66
2022/03/09 11:03:52;;;;;;;23.03;18.90;;;;;;;6.98;64.69;99652.34;5095685;28;20294;-67
2022/03/09 11:06:20;;;;;;;25.47;20.33;;;;;;;7.14;66.48;99637.25;5094826;28;20193;-67
2022/03/09 11:08:46;;;;;;;24.93;19.50;;;;;;;7.44;66.47;99643.59;5095442;28;20666;-67
2022/03/09 11:11:15;;;;;;;27.87;21.00;;;;;;;7.52;67.40;99633.78;5096226;28;20195;-66
2022/03/09 11:13:41;;;;;;;29.53;20.50;;;;;;;7.38;65.22;99638.97;5095420;28;20244;-67
2022/03/09 11:16:08;;;;;;;24.43;19.27;;;;;;;7.22;63.23;99642.50;5095585;28;20666;-66
2022/03/09 11:18:36;;;;;;;26.00;19.83;;;;;;;6.94;66.18;99640.47;5095294;28;20622;-67
2022/03/09 11:21:07;;;;;;;26.57;20.37;;;;;;;6.85;66.28;99628.25;5082857;28;20632;-66
2022/03/09 11:23:38;;;;;;;27.93;20.77;;;;;;;7.01;67.06;99622.94;5075274;28;20277;-67
2022/03/09 11:26:10;;;;;;;26.70;19.20;;;;;;;7.20;65.59;99625.19;5075776;28;20703;-66
2022/03/09 11:28:40;;;;;;;22.90;18.37;;;;;;;7.39;64.87;99630.88;5075543;28;20260;-66